Time;durP1;ratioP1;P1;durP2;ratioP2;P2;SDS_P1;SDS_P2;PMS_P1;PMS_P2;Temp;Humidity;BMP_temperature;BMP_pressure;BME280_temperature;BME280_humidity;BME280_pressure;Samples;Min_cycle;Max_cycle;Signal;HPM_P1;HPM_P2
2021/11/16 00:01:26;;;;;;;41.08;13.35;;;6.50;99.90;;;;;;6240627;22;20013;-64
2021/11/16 00:03:55;;;;;;;42.22;14.50;;;6.50;99.90;;;;;;6239103;22;20081;-62
2021/11/16 00:06:23;;;;;;;41.28;14.32;;;6.50;99.90;;;;;;6240040;22;20426;-62
2021/11/16 00:08:48;;;;;;;38.50;13.48;;;6.50;99.90;;;;;;6237777;22;20474;-63
2021/11/16 00:11:15;;;;;;;40.25;13.73;;;6.50;99.90;;;;;;6240128;22;20011;-63
2021/11/16 00:13:41;;;;;;;36.65;13.38;;;6.50;99.90;;;;;;6239688;22;20004;-61
2021/11/16 00:16:08;;;;;;;45.53;14.20;;;6.60;99.90;;;;;;6240638;22;20004;-62
2021/11/16 00:18:35;;;;;;;40.47;13.23;;;6.60;99.90;;;;;;6240716;22;20027;-62
2021/11/16 00:21:04;;;;;;;47.63;14.70;;;6.50;99.90;;;;;;6240848;22;20430;-63
2021/11/16 00:23:34;;;;;;;45.63;14.52;;;6.50;99.90;;;;;;6242679;22;20092;-62
2021/11/16 00:26:01;;;;;;;;;;;6.60;99.90;;;;;;6240088;22;20025;-62
2021/11/16 00:28:27;;;;;;;46.70;14.73;;;6.60;99.90;;;;;;6242682;22;19974;-62
2021/11/16 00:30:53;;;;;;;46.67;16.23;;;6.60;99.90;;;;;;6241245;22;20036;-62
2021/11/16 00:33:21;;;;;;;40.90;12.98;;;6.60;99.90;;;;;;6242026;22;20101;-62
2021/11/16 00:35:47;;;;;;;40.88;14.23;;;6.50;99.90;;;;;;6241338;22;20066;-62
2021/11/16 00:38:14;;;;;;;46.88;14.90;;;6.50;99.90;;;;;;6242387;22;20014;-62
2021/11/16 00:40:42;;;;;;;43.50;13.50;;;6.50;99.90;;;;;;6240872;22;20062;-63
2021/11/16 00:43:08;;;;;;;48.85;14.60;;;6.40;99.90;;;;;;6241722;22;20008;-63
2021/11/16 00:45:36;;;;;;;43.20;14.63;;;6.40;99.90;;;;;;6242219;22;20012;-61
2021/11/16 00:48:03;;;;;;;40.78;14.57;;;6.50;99.90;;;;;;6239927;23;20549;-62
2021/11/16 00:50:29;;;;;;;38.13;14.00;;;6.50;99.90;;;;;;6242017;22;20016;-64
2021/11/16 00:52:55;;;;;;;36.03;14.63;;;6.40;99.90;;;;;;6239325;22;20012;-63
2021/11/16 00:55:20;;;;;;;42.60;14.90;;;6.40;99.90;;;;;;6242035;22;20009;-62
2021/11/16 00:57:46;;;;;;;44.33;14.95;;;6.40;99.90;;;;;;6240959;22;20016;-63
2021/11/16 01:00:15;;;;;;;39.55;14.43;;;6.40;99.90;;;;;;6241793;22;20104;-63
2021/11/16 01:02:41;;;;;;;42.05;14.68;;;6.40;99.90;;;;;;6241303;22;20039;-62
2021/11/16 01:05:07;;;;;;;42.40;13.88;;;6.50;99.90;;;;;;6241993;22;20434;-63
2021/11/16 01:07:33;;;;;;;41.28;14.73;;;6.40;99.90;;;;;;6242049;22;20012;-62
2021/11/16 01:09:59;;;;;;;39.65;15.88;;;6.50;99.90;;;;;;6240242;22;20023;-62
2021/11/16 01:12:26;;;;;;;48.28;16.15;;;6.50;99.90;;;;;;6241532;22;20008;-62
2021/11/16 01:14:56;;;;;;;44.67;15.05;;;6.50;99.90;;;;;;6238744;22;20019;-62
2021/11/16 01:17:22;;;;;;;44.95;15.30;;;6.50;99.90;;;;;;6241953;22;20048;-62
2021/11/16 01:19:48;;;;;;;41.72;14.55;;;6.50;99.90;;;;;;6241201;22;20095;-62
2021/11/16 01:22:14;;;;;;;46.35;15.35;;;6.40;99.90;;;;;;6241577;22;20397;-63
2021/11/16 01:24:41;;;;;;;40.85;15.35;;;6.40;99.90;;;;;;6240908;22;20008;-62
2021/11/16 01:27:07;;;;;;;39.55;15.40;;;6.50;99.90;;;;;;6241794;22;20103;-61
2021/11/16 01:29:37;;;;;;;50.03;16.40;;;6.50;99.90;;;;;;6241921;22;20081;-62
2021/11/16 01:32:04;;;;;;;41.00;13.82;;;6.50;99.90;;;;;;6240947;22;20055;-62
2021/11/16 01:34:32;;;;;;;41.42;14.75;;;6.50;99.90;;;;;;6240218;22;20491;-63
2021/11/16 01:36:58;;;;;;;44.70;15.13;;;6.50;99.90;;;;;;6240836;22;20027;-62
2021/11/16 01:39:24;;;;;;;36.90;13.20;;;6.50;99.90;;;;;;6241933;22;20008;-63
2021/11/16 01:41:50;;;;;;;41.40;15.05;;;6.50;99.90;;;;;;6240587;22;20078;-62
2021/11/16 01:44:17;;;;;;;39.15;14.23;;;6.50;99.90;;;;;;6241765;22;20011;-62
2021/11/16 01:46:42;;;;;;;38.28;13.77;;;6.40;99.90;;;;;;6240874;22;20012;-62
2021/11/16 01:49:09;;;;;;;41.10;14.52;;;6.50;99.90;;;;;;6242165;22;20010;-62
2021/11/16 01:51:35;;;;;;;38.30;13.93;;;6.50;99.90;;;;;;6240094;22;20004;-63
2021/11/16 01:54:03;;;;;;;35.85;14.27;;;6.50;99.90;;;;;;6240384;22;20011;-63
2021/11/16 01:56:42;;;;;;;45.58;14.10;;;6.50;99.90;;;;;;6241730;22;20117;-62
2021/11/16 01:59:09;;;;;;;40.85;14.68;;;6.40;99.90;;;;;;6241588;22;20016;-63
2021/11/16 02:01:36;;;;;;;38.55;14.82;;;6.40;99.90;;;;;;6240732;22;20012;-62
2021/11/16 02:04:04;;;;;;;40.97;14.45;;;6.40;99.90;;;;;;6239420;22;20351;-63
2021/11/16 02:06:34;;;;;;;44.30;15.18;;;6.40;99.90;;;;;;6237991;23;20504;-62
2021/11/16 02:09:03;;;;;;;38.80;14.23;;;6.40;99.90;;;;;;6238659;22;20091;-62
2021/11/16 02:11:29;;;;;;;40.03;13.18;;;6.40;99.90;;;;;;6241505;22;20079;-62
2021/11/16 02:13:55;;;;;;;41.72;14.50;;;6.40;99.90;;;;;;6240628;22;20070;-63
2021/11/16 02:16:21;;;;;;;32.45;12.20;;;6.40;99.90;;;;;;6241199;22;20012;-62
2021/11/16 02:18:46;;;;;;;45.85;14.40;;;6.50;99.90;;;;;;6239986;22;20008;-63
2021/11/16 02:21:12;;;;;;;33.70;14.27;;;6.50;99.90;;;;;;6241331;22;20090;-62
2021/11/16 02:23:40;;;;;;;41.83;13.27;;;6.50;99.90;;;;;;6239665;22;20016;-64
2021/11/16 02:26:07;;;;;;;38.50;13.75;;;6.50;99.90;;;;;;6239464;22;20066;-62
2021/11/16 02:28:33;;;;;;;45.85;15.82;;;6.50;99.90;;;;;;6241391;22;20004;-62
2021/11/16 02:30:59;;;;;;;39.20;14.13;;;6.40;99.90;;;;;;6238016;22;20011;-62
2021/11/16 02:33:26;;;;;;;46.65;14.15;;;6.50;99.90;;;;;;6241112;22;20004;-62
2021/11/16 02:35:52;;;;;;;43.97;13.98;;;6.50;99.90;;;;;;6238394;22;20004;-62
2021/11/16 02:38:19;;;;;;;40.55;15.45;;;6.40;99.90;;;;;;6241134;22;20039;-62
2021/11/16 02:40:45;;;;;;;38.65;13.98;;;6.50;99.90;;;;;;6239963;22;20008;-63
2021/11/16 02:43:11;;;;;;;47.58;16.38;;;6.40;99.90;;;;;;6238949;23;20457;-62
2021/11/16 02:45:37;;;;;;;42.80;15.02;;;6.50;99.90;;;;;;6239570;23;20012;-62
2021/11/16 02:48:11;;;;;;;43.15;13.85;;;6.50;99.90;;;;;;6240465;22;20012;-63
2021/11/16 02:50:40;;;;;;;40.17;14.23;;;6.50;99.90;;;;;;6241105;22;20036;-62
2021/11/16 02:53:06;;;;;;;40.97;14.98;;;6.50;99.90;;;;;;6240437;22;20014;-63
2021/11/16 02:55:31;;;;;;;36.72;14.43;;;6.50;99.90;;;;;;6241186;22;20438;-62
2021/11/16 02:57:57;;;;;;;39.70;14.57;;;6.50;99.90;;;;;;6239576;22;20324;-64
2021/11/16 03:00:23;;;;;;;40.05;14.73;;;6.50;99.90;;;;;;6241351;22;20008;-62
2021/11/16 03:02:48;;;;;;;40.10;15.00;;;6.50;99.90;;;;;;6239805;22;20020;-61
2021/11/16 03:05:15;;;;;;;41.08;15.25;;;6.50;99.90;;;;;;6240558;22;20011;-63
2021/11/16 03:07:55;;;;;;;39.42;14.40;;;6.40;99.90;;;;;;6239642;22;20039;-63
2021/11/16 03:10:24;;;;;;;43.20;14.60;;;6.40;99.90;;;;;;6241045;22;20008;-64
2021/11/16 03:12:50;;;;;;;41.03;14.18;;;6.40;99.90;;;;;;6239973;22;20620;-63
2021/11/16 03:15:15;;;;;;;39.33;14.40;;;6.50;99.90;;;;;;6239921;22;20027;-62
2021/11/16 03:17:41;;;;;;;37.08;14.73;;;6.40;99.90;;;;;;6240513;22;20039;-62
2021/11/16 03:20:11;;;;;;;39.90;15.10;;;6.50;99.90;;;;;;6240429;22;20462;-63
2021/11/16 03:22:56;;;;;;;44.22;16.95;;;6.50;99.90;;;;;;6239940;22;20015;-63
2021/11/16 03:25:26;;;;;;;45.33;14.70;;;6.50;99.90;;;;;;6240584;22;20020;-61
2021/11/16 03:28:03;;;;;;;39.78;15.20;;;6.50;99.90;;;;;;6240122;22;20016;-62
2021/11/16 03:30:29;;;;;;;43.42;14.73;;;6.50;99.90;;;;;;6241220;22;20040;-63
2021/11/16 03:32:56;;;;;;;41.67;15.20;;;6.50;99.90;;;;;;6241139;22;20036;-62
2021/11/16 03:35:21;;;;;;;37.05;14.25;;;6.40;99.90;;;;;;6243273;22;20048;-62
2021/11/16 03:37:51;;;;;;;44.15;15.75;;;6.40;99.90;;;;;;6241469;22;20016;-64
2021/11/16 03:40:20;;;;;;;37.17;13.87;;;6.50;99.90;;;;;;6241809;22;20059;-63
2021/11/16 03:42:49;;;;;;;38.50;14.15;;;6.50;99.90;;;;;;6239491;22;20008;-62
2021/11/16 03:45:16;;;;;;;44.78;15.30;;;6.50;99.90;;;;;;6241759;22;20011;-62
2021/11/16 03:47:42;;;;;;;44.97;14.27;;;6.50;99.90;;;;;;6240297;22;20015;-63
2021/11/16 03:50:14;;;;;;;42.28;16.65;;;6.50;99.90;;;;;;6240716;22;20012;-63
2021/11/16 03:52:42;;;;;;;42.38;14.98;;;6.50;99.90;;;;;;6240037;22;20098;-62
2021/11/16 03:55:12;;;;;;;37.70;13.90;;;6.50;99.90;;;;;;6240180;22;20008;-62
2021/11/16 03:57:38;;;;;;;42.35;16.25;;;6.50;99.90;;;;;;6239168;22;20062;-62
2021/11/16 04:00:16;;;;;;;39.53;14.40;;;6.50;99.90;;;;;;6239925;22;20088;-63
2021/11/16 04:02:42;;;;;;;42.10;14.93;;;6.50;99.90;;;;;;6240000;22;20016;-63
2021/11/16 04:05:08;;;;;;;45.10;15.13;;;6.50;99.90;;;;;;6240713;22;20065;-62
2021/11/16 04:07:34;;;;;;;43.58;16.30;;;6.50;99.90;;;;;;6240920;22;20377;-63
2021/11/16 04:09:59;;;;;;;42.47;14.68;;;6.50;99.90;;;;;;6239814;22;20019;-62
2021/11/16 04:12:25;;;;;;;42.67;14.00;;;6.50;99.90;;;;;;6240662;22;20008;-62
2021/11/16 04:14:51;;;;;;;38.90;14.35;;;6.50;99.90;;;;;;6239819;22;20070;-62
2021/11/16 04:17:17;;;;;;;47.30;14.98;;;6.60;99.90;;;;;;6240503;22;20091;-63
2021/11/16 04:19:43;;;;;;;41.85;16.38;;;6.60;99.90;;;;;;6238093;22;20040;-62
2021/11/16 04:22:09;;;;;;;46.08;15.18;;;6.50;99.90;;;;;;6240334;22;20012;-63
2021/11/16 04:24:35;;;;;;;46.38;14.55;;;6.60;99.90;;;;;;6239072;23;20334;-62
2021/11/16 04:27:02;;;;;;;40.70;13.95;;;6.60;99.90;;;;;;6238056;22;20016;-63
2021/11/16 04:29:28;;;;;;;46.97;15.57;;;6.50;99.90;;;;;;6239197;22;20371;-64
2021/11/16 04:31:54;;;;;;;38.72;15.00;;;6.50;99.90;;;;;;6240004;22;20012;-62
2021/11/16 04:34:19;;;;;;;38.55;14.07;;;6.50;99.90;;;;;;6241161;22;20012;-62
2021/11/16 04:36:45;;;;;;;44.30;15.07;;;6.60;99.90;;;;;;6239864;22;20460;-62
2021/11/16 04:39:11;;;;;;;40.15;15.07;;;6.60;99.90;;;;;;6241568;22;20081;-64
2021/11/16 04:41:38;;;;;;;41.83;15.80;;;6.60;99.90;;;;;;6241445;22;20447;-62
2021/11/16 04:44:06;;;;;;;43.50;13.88;;;6.60;99.90;;;;;;6238871;22;20004;-62
2021/11/16 04:46:31;;;;;;;41.10;15.82;;;6.60;99.90;;;;;;6241683;22;20443;-64
2021/11/16 04:52:14;;;;;;;40.50;15.20;;;6.60;99.90;;;;;;6241144;22;20007;-62
2021/11/16 04:54:28;;;;;;;45.58;15.07;;;6.60;99.90;;;;;;6225049;22;20012;-63
2021/11/16 05:02:37;;;;;;;43.10;14.38;;;6.60;99.90;;;;;;6240373;22;20015;-62
2021/11/16 05:05:09;;;;;;;45.67;15.88;;;6.60;99.90;;;;;;6239930;22;20079;-63
2021/11/16 05:07:36;;;;;;;36.50;15.13;;;6.50;99.90;;;;;;6240269;22;20026;-63
2021/11/16 05:10:05;;;;;;;47.40;15.82;;;6.50;99.90;;;;;;6241848;22;20004;-62
2021/11/16 05:12:32;;;;;;;46.85;16.83;;;6.50;99.90;;;;;;6243019;22;20473;-63
2021/11/16 05:15:00;;;;;;;49.88;15.27;;;6.50;99.90;;;;;;6241096;22;20439;-62
2021/11/16 05:17:27;;;;;;;42.55;14.43;;;6.50;99.90;;;;;;6243666;22;20016;-63
2021/11/16 05:19:53;;;;;;;47.97;15.55;;;6.50;99.90;;;;;;6239775;22;20097;-62
2021/11/16 05:22:19;;;;;;;45.90;16.13;;;6.50;99.90;;;;;;6242392;22;20455;-62
2021/11/16 05:24:45;;;;;;;43.78;15.77;;;6.50;99.90;;;;;;6240959;22;20458;-63
2021/11/16 05:27:10;;;;;;;47.17;15.77;;;6.60;99.90;;;;;;6242945;22;20018;-64
2021/11/16 05:29:36;;;;;;;48.53;15.38;;;6.60;99.90;;;;;;6244444;22;20016;-62
2021/11/16 05:32:03;;;;;;;45.97;16.15;;;6.60;99.90;;;;;;6241796;22;20095;-63
2021/11/16 05:34:28;;;;;;;47.55;16.73;;;6.50;99.90;;;;;;6244638;22;20046;-61
2021/11/16 05:36:54;;;;;;;38.95;14.10;;;6.50;99.90;;;;;;6240696;22;20324;-64
2021/11/16 05:39:20;;;;;;;52.33;15.85;;;6.40;99.90;;;;;;6242428;23;20004;-62
2021/11/16 05:41:47;;;;;;;41.03;14.65;;;6.50;99.90;;;;;;6242771;22;20469;-63
2021/11/16 05:44:13;;;;;;;43.25;14.82;;;6.50;99.90;;;;;;6244583;22;20008;-62
2021/11/16 05:46:39;;;;;;;40.10;13.77;;;6.50;99.90;;;;;;6243285;22;20086;-64
2021/11/16 05:49:05;;;;;;;46.63;15.40;;;6.50;99.90;;;;;;6247526;22;20005;-65
2021/11/16 05:51:31;;;;;;;46.72;16.67;;;6.50;99.90;;;;;;6247164;22;20013;-64
2021/11/16 05:53:58;;;;;;;41.35;15.50;;;6.50;99.90;;;;;;6236499;22;20409;-68
2021/11/16 05:56:35;;;;;;;43.20;16.45;;;6.50;99.90;;;;;;6241580;22;20087;-62
2021/11/16 05:59:03;;;;;;;47.60;15.80;;;6.50;99.90;;;;;;6239138;22;20015;-62
2021/11/16 06:01:31;;;;;;;49.70;14.82;;;6.50;99.90;;;;;;6243539;22;20008;-62
2021/11/16 06:03:58;;;;;;;48.40;16.13;;;6.50;99.90;;;;;;6238940;22;20009;-64
2021/11/16 06:06:29;;;;;;;47.50;17.95;;;6.50;99.90;;;;;;6240558;22;20004;-63
2021/11/16 06:08:55;;;;;;;;;;;6.50;99.90;;;;;;6241183;22;20015;-68
2021/11/16 06:11:23;;;;;;;50.20;15.95;;;6.40;99.90;;;;;;6240946;22;19907;-61
2021/11/16 06:13:51;;;;;;;48.83;15.60;;;6.40;99.90;;;;;;6240297;22;20000;-62
2021/11/16 06:16:17;;;;;;;48.65;16.65;;;6.40;99.90;;;;;;6240839;22;20000;-62
2021/11/16 06:18:49;;;;;;;50.78;16.67;;;6.40;99.90;;;;;;6239821;22;20101;-61
2021/11/16 06:21:15;;;;;;;50.85;16.42;;;6.30;99.90;;;;;;6241292;22;20061;-62
2021/11/16 06:23:40;;;;;;;42.85;14.90;;;6.40;99.90;;;;;;6237597;22;20008;-63
2021/11/16 06:26:06;;;;;;;42.45;15.93;;;6.30;99.90;;;;;;6238706;22;20013;-62
2021/11/16 06:28:32;;;;;;;48.08;17.13;;;6.30;99.90;;;;;;6239095;22;20032;-63
2021/11/16 06:30:58;;;;;;;43.22;15.77;;;6.30;99.90;;;;;;6237142;22;20425;-63
2021/11/16 06:33:24;;;;;;;48.70;16.63;;;6.30;99.90;;;;;;6238516;22;20004;-61
2021/11/16 06:35:53;;;;;;;42.58;15.55;;;6.30;99.90;;;;;;6237582;22;20011;-62
2021/11/16 06:38:19;;;;;;;48.05;15.98;;;6.30;99.90;;;;;;6236979;22;20015;-62
2021/11/16 06:40:48;;;;;;;47.20;15.80;;;6.30;99.90;;;;;;6237675;22;20016;-63
2021/11/16 06:43:28;;;;;;;49.10;17.98;;;6.30;99.90;;;;;;6236988;22;20012;-62
2021/11/16 06:45:56;;;;;;;49.25;16.00;;;6.30;99.90;;;;;;6237664;22;20066;-62
2021/11/16 06:48:22;;;;;;;38.72;14.48;;;6.30;99.90;;;;;;6238674;22;20032;-62
2021/11/16 06:50:49;;;;;;;45.35;15.82;;;6.30;99.90;;;;;;6235677;22;20357;-62
2021/11/16 06:53:21;;;;;;;42.22;15.88;;;6.40;99.90;;;;;;6238420;22;20016;-62
2021/11/16 06:55:47;;;;;;;49.08;16.70;;;6.40;99.90;;;;;;6237718;22;20008;-63
2021/11/16 06:58:13;;;;;;;53.45;15.85;;;6.40;99.90;;;;;;6236748;23;20342;-63
2021/11/16 07:00:38;;;;;;;43.95;15.35;;;6.40;99.90;;;;;;6238095;22;20094;-62
2021/11/16 07:03:04;;;;;;;42.85;14.88;;;6.40;99.90;;;;;;6236273;22;20543;-62
2021/11/16 07:05:31;;;;;;;39.67;15.93;;;6.40;99.90;;;;;;6238164;22;20008;-62
2021/11/16 07:07:57;;;;;;;53.45;16.05;;;6.40;99.90;;;;;;6237042;22;20058;-62
2021/11/16 07:10:30;;;;;;;46.20;15.27;;;6.40;99.90;;;;;;6238469;22;20012;-62
2021/11/16 07:13:05;;;;;;;42.75;14.20;;;6.40;99.90;;;;;;6237403;22;20012;-62
2021/11/16 07:15:35;;;;;;;41.22;14.68;;;6.30;99.90;;;;;;6239053;22;20094;-64
2021/11/16 07:18:05;;;;;;;50.65;16.17;;;6.40;99.90;;;;;;6238113;22;20077;-63
2021/11/16 07:20:31;;;;;;;45.50;15.67;;;6.40;99.90;;;;;;6238582;22;20044;-62
2021/11/16 07:22:58;;;;;;;44.13;16.95;;;6.40;99.90;;;;;;6237005;22;20247;-62
2021/11/16 07:25:23;;;;;;;51.13;17.60;;;6.40;99.90;;;;;;6238103;22;20138;-61
2021/11/16 07:27:54;;;;;;;51.40;15.80;;;6.30;99.90;;;;;;6236548;22;20059;-63
2021/11/16 07:30:32;;;;;;;;;;;6.30;99.90;;;;;;6237888;22;20438;-61
2021/11/16 07:33:00;;;;;;;49.50;17.05;;;6.30;99.90;;;;;;6236795;22;20370;-63
2021/11/16 07:35:31;;;;;;;42.75;16.30;;;6.30;99.90;;;;;;6238205;22;20004;-62
2021/11/16 07:37:58;;;;;;;;;;;6.30;99.90;;;;;;6237163;22;20020;-62
2021/11/16 07:40:25;;;;;;;47.55;15.23;;;6.30;99.90;;;;;;6236371;22;19914;-62
2021/11/16 07:43:09;;;;;;;44.80;13.70;;;6.30;99.90;;;;;;6236401;22;20079;-63
2021/11/16 07:45:43;;;;;;;44.53;14.68;;;6.30;99.90;;;;;;6238055;22;20066;-62
2021/11/16 07:48:15;;;;;;;49.80;15.55;;;6.30;99.90;;;;;;6237034;22;20042;-62
2021/11/16 07:50:46;;;;;;;49.53;15.25;;;6.40;99.90;;;;;;6234976;22;20022;-61
2021/11/16 07:53:34;;;;;;;43.90;15.13;;;6.40;99.90;;;;;;6237578;22;20012;-62
2021/11/16 07:56:09;;;;;;;52.05;16.77;;;6.30;99.90;;;;;;6236821;22;21685;-62
2021/11/16 07:58:42;;;;;;;47.65;15.77;;;6.30;99.90;;;;;;6237636;22;20012;-62
2021/11/16 08:01:19;;;;;;;48.15;15.98;;;6.30;99.90;;;;;;6235885;22;20012;-62
2021/11/16 08:03:54;;;;;;;46.97;15.88;;;6.40;99.90;;;;;;6236799;22;20008;-65
2021/11/16 08:06:26;;;;;;;50.53;16.23;;;6.30;99.90;;;;;;6235620;23;20008;-62
2021/11/16 08:09:03;;;;;;;45.45;13.90;;;6.30;99.90;;;;;;6236389;22;20455;-62
2021/11/16 08:11:39;;;;;;;54.35;16.27;;;6.40;99.90;;;;;;6235307;22;20016;-61
2021/11/16 08:14:09;;;;;;;48.33;16.00;;;6.40;99.90;;;;;;6235347;23;20015;-62
2021/11/16 08:16:49;;;;;;;53.53;16.80;;;6.40;99.90;;;;;;6236336;22;20677;-62
2021/11/16 08:19:18;;;;;;;48.88;15.73;;;6.40;99.90;;;;;;6236973;22;20000;-63
2021/11/16 08:21:46;;;;;;;43.20;15.00;;;6.40;99.90;;;;;;6236302;22;20019;-62
2021/11/16 08:24:15;;;;;;;48.33;15.68;;;6.40;99.90;;;;;;6235578;22;20100;-62
2021/11/16 08:26:52;;;;;;;53.75;17.13;;;6.40;99.90;;;;;;6235537;22;20016;-63
2021/11/16 08:29:35;;;;;;;43.80;15.93;;;6.40;99.90;;;;;;6237435;22;20001;-62
2021/11/16 08:32:10;;;;;;;47.55;15.35;;;6.40;99.90;;;;;;6234831;22;20012;-61
2021/11/16 08:34:39;;;;;;;46.33;15.77;;;6.40;99.90;;;;;;6237794;22;20039;-62
2021/11/16 08:37:07;;;;;;;54.92;16.38;;;6.40;99.90;;;;;;6236152;23;20035;-62
2021/11/16 08:40:00;;;;;;;48.38;16.98;;;6.40;99.90;;;;;;6236132;22;20504;-63
2021/11/16 08:42:29;;;;;;;41.22;15.50;;;6.40;99.90;;;;;;6233971;22;20008;-61
2021/11/16 08:45:03;;;;;;;44.50;16.55;;;6.40;99.90;;;;;;6238760;22;20009;-62
2021/11/16 08:47:42;;;;;;;44.65;15.82;;;6.40;99.90;;;;;;6239599;22;20497;-62
2021/11/16 08:50:32;;;;;;;45.25;16.02;;;6.40;99.90;;;;;;6239123;22;20024;-62
2021/11/16 08:53:01;;;;;;;43.47;15.80;;;6.40;99.90;;;;;;6236364;22;20012;-63
2021/11/16 08:55:31;;;;;;;54.78;16.55;;;6.40;99.90;;;;;;6239536;22;20074;-62
2021/11/16 08:57:58;;;;;;;47.75;16.05;;;6.40;99.90;;;;;;6238365;22;20015;-62
2021/11/16 09:00:34;;;;;;;42.97;15.05;;;6.40;99.90;;;;;;6239172;22;20004;-62
2021/11/16 09:03:16;;;;;;;44.85;16.40;;;6.40;99.90;;;;;;6238062;22;20473;-63
2021/11/16 09:05:47;;;;;;;53.90;17.27;;;6.40;99.90;;;;;;6237933;22;20015;-62
2021/11/16 09:08:28;;;;;;;49.17;15.85;;;6.50;99.90;;;;;;6239399;22;20012;-61
2021/11/16 09:10:57;;;;;;;49.72;15.32;;;6.50;99.90;;;;;;6236182;22;20083;-63
2021/11/16 09:13:26;;;;;;;49.40;16.48;;;6.50;99.90;;;;;;6237153;22;20026;-62
2021/11/16 09:15:57;;;;;;;52.17;16.85;;;6.50;99.90;;;;;;6238104;22;20012;-61
2021/11/16 09:18:36;;;;;;;47.53;15.43;;;6.60;99.90;;;;;;6239385;22;20019;-62
2021/11/16 09:21:12;;;;;;;51.25;15.80;;;6.60;99.90;;;;;;6235899;22;20083;-63
2021/11/16 09:23:52;;;;;;;47.33;17.17;;;6.60;99.90;;;;;;6238923;22;20004;-62
2021/11/16 09:28:51;;;;;;;55.10;17.60;;;6.60;99.90;;;;;;6237829;22;20133;-64
2021/11/16 09:31:17;;;;;;;53.17;15.83;;;6.60;99.90;;;;;;6239058;22;20031;-62
2021/11/16 09:33:42;;;;;;;55.10;16.40;;;6.40;99.90;;;;;;6238496;22;20243;-63
2021/11/16 09:36:08;;;;;;;51.60;16.23;;;6.40;99.90;;;;;;6239026;22;20007;-63
2021/11/16 09:38:51;;;;;;;50.28;16.63;;;6.50;99.90;;;;;;6237276;23;20039;-61
2021/11/16 09:41:22;;;;;;;48.35;16.60;;;6.50;99.90;;;;;;6236086;22;20016;-61
2021/11/16 09:44:07;;;;;;;45.03;14.95;;;6.50;99.90;;;;;;6238084;22;20067;-62
2021/11/16 09:47:01;;;;;;;49.53;15.70;;;6.50;99.90;;;;;;6238909;22;20023;-62
2021/11/16 09:49:35;;;;;;;49.33;16.27;;;6.60;99.90;;;;;;6237753;22;20035;-62
2021/11/16 09:52:07;;;;;;;50.50;17.15;;;6.60;99.90;;;;;;6237735;22;20023;-62
2021/11/16 09:54:51;;;;;;;49.75;16.17;;;6.70;99.90;;;;;;6239276;22;20351;-62
2021/11/16 09:57:19;;;;;;;48.80;16.67;;;6.60;99.90;;;;;;6235811;22;20012;-63
2021/11/16 09:59:46;;;;;;;54.25;16.63;;;6.60;99.90;;;;;;6237431;22;20012;-63
2021/11/16 10:02:31;;;;;;;50.83;15.52;;;6.60;99.90;;;;;;6238117;22;20016;-63
2021/11/16 10:05:04;;;;;;;53.85;17.38;;;6.60;99.90;;;;;;6237242;22;20308;-62
2021/11/16 10:07:30;;;;;;;45.17;14.93;;;6.60;99.90;;;;;;6238300;22;20057;-62
2021/11/16 10:09:56;;;;;;;53.80;17.15;;;6.60;99.90;;;;;;6238003;22;20169;-63
2021/11/16 10:12:24;;;;;;;45.80;15.02;;;6.50;99.90;;;;;;6236499;22;20095;-63
2021/11/16 10:14:51;;;;;;;48.65;16.15;;;6.50;99.90;;;;;;6237403;22;20159;-61
2021/11/16 10:17:18;;;;;;;46.97;17.42;;;6.50;99.90;;;;;;6238919;22;20012;-62
2021/11/16 10:19:44;;;;;;;48.53;16.05;;;6.60;99.90;;;;;;6237339;22;20514;-63
2021/11/16 10:22:12;;;;;;;54.00;16.83;;;6.60;99.90;;;;;;6237247;22;20042;-63
2021/11/16 10:24:39;;;;;;;47.03;14.68;;;6.50;99.90;;;;;;6238418;22;20024;-63
2021/11/16 10:27:16;;;;;;;47.80;16.98;;;6.60;99.90;;;;;;6236983;22;20022;-62
2021/11/16 10:29:44;;;;;;;48.53;15.52;;;6.60;99.90;;;;;;6237366;22;20413;-62
2021/11/16 10:32:20;;;;;;;49.40;16.70;;;6.70;99.90;;;;;;6233268;22;20004;-63
2021/11/16 10:34:47;;;;;;;46.38;14.88;;;6.70;99.90;;;;;;6233674;22;20096;-63
2021/11/16 10:37:14;;;;;;;47.08;14.68;;;6.70;99.90;;;;;;6234344;22;20354;-63
2021/11/16 10:39:39;;;;;;;54.58;15.48;;;6.60;99.90;;;;;;6234642;22;20091;-62
2021/11/16 10:42:15;;;;;;;49.20;15.82;;;6.70;99.90;;;;;;6233493;22;20055;-62
2021/11/16 10:44:40;;;;;;;46.67;14.98;;;6.70;99.90;;;;;;6206790;23;20012;-63
2021/11/16 10:47:06;;;;;;;46.78;14.82;;;6.70;99.90;;;;;;6234215;23;20461;-63
2021/11/16 10:49:33;;;;;;;46.90;15.77;;;6.70;99.90;;;;;;6233927;23;20012;-62
2021/11/16 10:51:59;;;;;;;46.72;16.00;;;6.60;99.90;;;;;;6232510;22;20008;-62
2021/11/16 10:54:25;;;;;;;44.08;15.80;;;6.50;99.90;;;;;;6234647;23;20088;-62
2021/11/16 10:57:04;;;;;;;49.17;13.27;;;6.60;99.90;;;;;;6232466;23;20016;-63
2021/11/16 10:59:31;;;;;;;50.05;15.15;;;6.60;99.90;;;;;;6234364;23;20004;-63
2021/11/16 11:01:58;;;;;;;48.05;14.48;;;6.60;99.90;;;;;;6232970;22;20016;-62
2021/11/16 11:04:26;;;;;;;38.90;13.63;;;6.60;99.90;;;;;;6234415;23;20012;-62
2021/11/16 11:06:53;;;;;;;46.80;14.23;;;6.50;99.90;;;;;;6232326;23;20430;-61
2021/11/16 11:09:21;;;;;;;40.97;13.90;;;6.60;99.90;;;;;;6233428;23;20307;-63
2021/11/16 11:11:51;;;;;;;41.58;14.48;;;6.50;99.90;;;;;;6231812;22;20020;-62
2021/11/16 11:14:18;;;;;;;;;;;6.60;99.90;;;;;;6235752;23;20023;-62
2021/11/16 11:16:51;;;;;;;43.40;13.60;;;6.60;99.90;;;;;;6235279;23;19926;-62
2021/11/16 11:19:20;;;;;;;51.58;15.68;;;6.60;99.90;;;;;;6236555;23;20023;-62
2021/11/16 11:21:55;;;;;;;44.50;14.20;;;6.60;99.90;;;;;;6235169;22;20008;-64
2021/11/16 11:24:27;;;;;;;36.97;13.18;;;6.60;99.90;;;;;;6232701;23;20603;-62
2021/11/16 11:27:10;;;;;;;40.13;14.15;;;6.50;99.90;;;;;;6231314;23;20350;-63
2021/11/16 11:29:43;;;;;;;38.10;13.43;;;6.60;99.90;;;;;;6232710;23;20099;-62
2021/11/16 11:32:18;;;;;;;48.47;13.27;;;6.50;99.90;;;;;;6219414;23;20007;-62
2021/11/16 11:34:44;;;;;;;39.55;12.85;;;6.60;99.90;;;;;;6231918;22;20019;-62
2021/11/16 11:37:31;;;;;;;45.40;14.20;;;6.50;99.90;;;;;;6232252;22;20522;-64
2021/11/16 11:39:59;;;;;;;48.38;15.00;;;6.60;99.90;;;;;;6231863;22;20012;-62
2021/11/16 11:42:29;;;;;;;43.40;13.70;;;6.50;99.90;;;;;;6232145;22;20012;-63
2021/11/16 11:45:28;;;;;;;41.05;12.95;;;6.50;99.90;;;;;;6232565;22;20019;-62
2021/11/16 11:48:08;;;;;;;44.90;13.35;;;6.50;99.90;;;;;;6231812;22;20051;-62
2021/11/16 11:50:38;;;;;;;36.25;12.35;;;6.50;99.90;;;;;;6232368;22;20020;-62
2021/11/16 11:53:14;;;;;;;37.83;12.77;;;6.50;99.90;;;;;;6231278;22;20011;-62
2021/11/16 11:55:49;;;;;;;45.03;14.07;;;6.50;99.90;;;;;;6234323;22;20046;-63
2021/11/16 11:58:20;;;;;;;42.00;13.35;;;6.60;99.90;;;;;;6232148;22;20108;-62
2021/11/16 12:00:48;;;;;;;45.78;13.35;;;6.60;99.90;;;;;;6234596;22;20016;-64
2021/11/16 12:03:14;;;;;;;35.63;12.15;;;6.50;99.90;;;;;;6235342;22;20546;-62
2021/11/16 12:05:42;;;;;;;37.78;11.73;;;6.60;99.90;;;;;;6233660;22;20012;-62
2021/11/16 12:08:09;;;;;;;41.58;12.88;;;6.60;99.90;;;;;;6233664;22;20015;-63
2021/11/16 12:10:38;;;;;;;39.20;12.30;;;6.50;99.90;;;;;;6236250;22;20023;-62
2021/11/16 12:13:05;;;;;;;38.72;11.65;;;6.50;99.90;;;;;;6234933;22;20040;-63
2021/11/16 12:15:36;;;;;;;32.38;10.52;;;6.50;99.90;;;;;;6237051;22;20357;-63
2021/11/16 12:18:03;;;;;;;37.60;11.52;;;6.50;99.90;;;;;;6238757;22;20455;-62
2021/11/16 12:20:53;;;;;;;41.10;12.55;;;6.60;99.90;;;;;;6239445;22;20054;-62
2021/11/16 12:23:44;;;;;;;40.53;13.93;;;6.50;99.90;;;;;;6238366;22;20106;-62
2021/11/16 12:26:10;;;;;;;;;;;6.60;99.90;;;;;;6239028;22;20023;-62
2021/11/16 12:28:36;;;;;;;47.35;13.85;;;6.50;99.90;;;;;;6239834;22;19941;-63
2021/11/16 12:31:03;;;;;;;42.45;13.40;;;6.50;99.90;;;;;;6238759;22;20035;-62
2021/11/16 12:33:39;;;;;;;42.67;14.25;;;6.50;99.90;;;;;;6239066;22;20012;-62
2021/11/16 12:36:07;;;;;;;46.47;13.95;;;6.50;99.90;;;;;;6238490;22;20074;-63
2021/11/16 12:38:41;;;;;;;36.30;12.55;;;6.40;99.90;;;;;;6239450;22;20438;-62
2021/11/16 12:41:40;;;;;;;49.10;13.88;;;6.40;99.90;;;;;;6239104;22;20099;-62
2021/11/16 12:44:17;;;;;;;41.05;13.40;;;6.40;99.90;;;;;;6239180;22;20019;-62
2021/11/16 12:46:44;;;;;;;42.97;14.15;;;6.30;99.90;;;;;;6239075;22;20016;-62
2021/11/16 12:49:32;;;;;;;44.78;12.93;;;6.40;99.90;;;;;;6239266;22;20066;-63
2021/11/16 12:52:00;;;;;;;44.53;12.73;;;6.40;99.90;;;;;;6238475;22;20118;-62
2021/11/16 12:54:31;;;;;;;37.78;12.65;;;6.40;99.90;;;;;;6239152;22;20016;-63
2021/11/16 12:56:56;;;;;;;37.28;12.10;;;6.40;99.90;;;;;;6237565;22;20011;-63
2021/11/16 12:59:23;;;;;;;36.13;11.73;;;6.50;99.90;;;;;;6239724;22;20012;-63
2021/11/16 13:02:00;;;;;;;40.05;12.85;;;6.40;99.90;;;;;;6237854;22;20075;-62